Time;durP1;ratioP1;P1;durP2;ratioP2;P2;SDS_P1;SDS_P2;PMS_P1;PMS_P2;Temp;Humidity;BMP_temperature;BMP_pressure;BME280_temperature;BME280_humidity;BME280_pressure;Samples;Min_cycle;Max_cycle;Signal;HPM_P1;HPM_P2
2022/07/27 00:01:25;;;;;;;6.50;3.80;;;;;;;16.40;76.31;99029.91;108512;1283;138371;-56
2022/07/27 00:03:51;;;;;;;6.10;3.50;;;;;;;16.37;76.49;99030.92;108592;1282;23102;-56
2022/07/27 00:06:18;;;;;;;4.30;3.30;;;;;;;16.37;76.63;99032.46;108474;1283;139423;-57
2022/07/27 00:08:45;;;;;;;6.50;4.10;;;;;;;16.36;76.58;99033.69;108494;1283;22474;-57
2022/07/27 00:11:12;;;;;;;4.70;3.10;;;;;;;16.34;76.65;99031.91;108600;1283;22409;-57
2022/07/27 00:13:39;;;;;;;7.40;3.80;;;;;;;16.32;76.69;99033.54;108399;1283;138405;-56
2022/07/27 00:16:06;;;;;;;4.10;3.20;;;;;;;16.31;76.81;99033.15;108516;1283;22458;-56
2022/07/27 00:18:33;;;;;;;9.40;4.00;;;;;;;16.29;76.74;99029.12;108416;1282;138254;-56
2022/07/27 00:21:00;;;;;;;3.80;3.00;;;;;;;16.27;76.90;99029.98;108863;1280;22461;-56
2022/07/27 00:23:26;;;;;;;5.10;3.90;;;;;;;16.24;76.94;99027.40;108709;1280;22567;-56
2022/07/27 00:25:53;;;;;;;4.90;3.60;;;;;;;16.24;76.95;99028.50;108588;1280;138390;-55
2022/07/27 00:28:20;;;;;;;5.80;3.60;;;;;;;16.23;77.00;99031.77;108886;1279;22473;-55
2022/07/27 00:30:47;;;;;;;4.80;3.30;;;;;;;16.20;77.04;99029.48;108594;1280;139567;-55
2022/07/27 00:33:13;;;;;;;4.50;3.40;;;;;;;16.18;77.13;99030.31;108549;1283;22522;-55
2022/07/27 00:35:43;;;;;;;6.90;3.40;;;;;;;16.15;77.25;99024.66;108547;1282;138000;-56
2022/07/27 00:38:10;;;;;;;4.10;3.00;;;;;;;16.16;77.31;99027.84;108921;1281;22267;-56
2022/07/27 00:40:37;;;;;;;4.90;3.40;;;;;;;16.15;77.38;99030.31;108550;1282;22432;-55
2022/07/27 00:43:03;;;;;;;4.10;3.20;;;;;;;16.14;77.44;99031.27;108583;1281;138484;-56
2022/07/27 00:45:30;;;;;;;5.10;3.60;;;;;;;16.12;77.40;99029.98;108670;1281;23219;-55
2022/07/27 00:47:57;;;;;;;5.30;3.50;;;;;;;16.11;77.52;99030.09;108597;1281;139912;-56
2022/07/27 00:50:24;;;;;;;4.80;3.30;;;;;;;16.11;77.65;99030.09;108601;1283;22531;-55
2022/07/27 00:52:51;;;;;;;7.00;3.40;;;;;;;16.11;77.61;99031.91;108539;1283;22468;-55
2022/07/27 00:55:18;;;;;;;6.50;3.60;;;;;;;16.10;77.54;99028.86;108608;1280;138796;-55
2022/07/27 00:57:45;;;;;;;3.60;3.20;;;;;;;16.08;77.56;99026.91;108634;1281;22473;-55
2022/07/27 01:00:27;;;;;;;5.90;3.70;;;;;;;16.05;77.62;99025.39;108710;1280;139872;-55
2022/07/27 01:02:54;;;;;;;4.80;3.20;;;;;;;16.06;77.75;99030.09;108781;1281;22581;-55
2022/07/27 01:05:23;;;;;;;9.60;3.60;;;;;;;16.06;77.79;99034.27;108564;1283;22466;-55
2022/07/27 01:08:03;;;;;;;5.90;3.60;;;;;;;16.04;77.78;99030.08;108924;1280;23255;-56
2022/07/27 01:10:30;;;;;;;6.90;3.70;;;;;;;16.04;77.74;99032.70;108485;1283;22374;-55
2022/07/27 01:12:57;;;;;;;6.70;3.30;;;;;;;16.03;77.77;99033.27;108497;1281;137899;-55
2022/07/27 01:15:24;;;;;;;4.10;3.40;;;;;;;16.02;77.69;99034.11;108814;1280;25265;-56
2022/07/27 01:17:50;;;;;;;5.90;3.20;;;;;;;16.01;77.61;99037.91;108659;1281;139726;-55
2022/07/27 01:20:17;;;;;;;6.90;3.60;;;;;;;15.98;77.59;99033.73;108628;1283;22436;-55
2022/07/27 01:22:44;;;;;;;4.70;3.70;;;;;;;15.94;77.66;99028.79;108702;1281;22505;-55
2022/07/27 01:25:11;;;;;;;9.00;3.20;;;;;;;15.91;77.71;99027.20;108776;1280;137841;-56
2022/07/27 01:27:37;;;;;;;4.80;3.40;;;;;;;15.89;77.80;99031.45;108424;1283;22487;-55
2022/07/27 01:30:25;;;;;;;4.70;3.10;;;;;;;15.90;77.88;99031.12;108755;1281;138297;-56
2022/07/27 01:33:12;;;;;;;6.50;4.40;;;;;;;15.89;77.78;99028.83;108624;1281;22542;-56
2022/07/27 01:35:38;;;;;;;5.00;3.50;;;;;;;15.88;77.74;99030.97;108607;1281;138634;-56
2022/07/27 01:38:07;;;;;;;4.70;2.90;;;;;;;15.87;77.74;99030.67;108887;1281;22503;-56
2022/07/27 01:40:35;;;;;;;4.80;3.30;;;;;;;15.87;77.70;99029.33;108687;1281;22536;-56
2022/07/27 01:43:03;;;;;;;4.20;2.90;;;;;;;15.86;77.73;99029.52;108579;1281;138063;-56
2022/07/27 01:45:30;;;;;;;5.30;3.80;;;;;;;15.86;77.66;99026.44;108666;1281;23225;-56
2022/07/27 01:47:57;;;;;;;3.90;2.90;;;;;;;15.85;77.68;99029.92;108496;1282;139365;-56
2022/07/27 01:50:24;;;;;;;3.60;2.90;;;;;;;15.82;77.70;99028.43;108671;1281;22586;-56
2022/07/27 01:52:51;;;;;;;6.20;3.10;;;;;;;15.82;77.76;99026.52;109313;1274;22464;-57
2022/07/27 01:55:18;;;;;;;9.10;3.40;;;;;;;15.81;77.69;99025.76;109298;1273;139315;-56
2022/07/27 01:57:44;;;;;;;3.80;3.00;;;;;;;15.80;77.66;99026.04;109448;1274;22334;-56
2022/07/27 02:00:12;;;;;;;4.10;3.10;;;;;;;15.79;77.60;99022.88;109225;1276;138501;-56
2022/07/27 02:02:39;;;;;;;5.50;3.50;;;;;;;15.78;77.62;99023.06;109395;1274;23144;-56
2022/07/27 02:05:07;;;;;;;5.60;3.20;;;;;;;15.77;77.60;99023.15;109424;1274;23136;-56
2022/07/27 02:07:34;;;;;;;3.10;2.80;;;;;;;15.75;77.56;99019.38;109059;1276;139085;-56
2022/07/27 02:10:02;;;;;;;3.60;2.90;;;;;;;15.74;77.64;99021.42;109396;1274;22616;-57
2022/07/27 02:12:35;;;;;;;3.90;2.80;;;;;;;15.74;77.62;99019.16;109247;1274;138358;-57
2022/07/27 02:15:09;;;;;;;3.40;3.00;;;;;;;15.74;77.65;99021.87;109386;1274;22751;-57
2022/07/27 02:17:44;;;;;;;5.60;2.80;;;;;;;15.71;77.70;99018.31;109368;1274;138311;-57
2022/07/27 02:20:12;;;;;;;4.70;2.90;;;;;;;15.71;77.75;99022.89;109396;1274;22510;-56
2022/07/27 02:22:39;;;;;;;5.50;2.70;;;;;;;15.69;77.78;99026.09;109461;1274;22441;-56
2022/07/27 02:25:06;;;;;;;5.00;3.30;;;;;;;15.69;77.82;99026.77;109286;1274;138942;-56
2022/07/27 02:27:33;;;;;;;3.30;2.80;;;;;;;15.68;77.86;99028.92;109475;1274;22532;-56
2022/07/27 02:30:00;;;;;;;4.20;2.80;;;;;;;15.69;77.94;99028.02;109332;1274;138218;-56
2022/07/27 02:32:27;;;;;;;4.20;2.80;;;;;;;15.70;77.89;99028.39;109414;1274;22499;-56
2022/07/27 02:34:53;;;;;;;3.10;2.80;;;;;;;15.70;77.90;99033.23;109356;1274;22967;-56
2022/07/27 02:37:20;;;;;;;4.30;3.10;;;;;;;15.71;77.89;99035.13;109182;1274;139240;-56
2022/07/27 02:39:47;;;;;;;5.80;2.50;;;;;;;15.71;77.90;99034.58;109148;1276;23248;-56
2022/07/27 02:42:14;;;;;;;4.40;3.20;;;;;;;15.69;77.92;99034.88;109325;1274;138676;-55
2022/07/27 02:44:41;;;;;;;3.70;3.20;;;;;;;15.67;77.97;99030.52;109441;1274;23188;-55
2022/07/27 02:47:08;;;;;;;6.40;3.40;;;;;;;15.69;77.98;99037.14;109325;1274;22450;-55
2022/07/27 02:49:35;;;;;;;6.10;3.60;;;;;;;15.69;78.08;99037.80;109323;1274;139168;-55
2022/07/27 02:52:02;;;;;;;7.80;2.90;;;;;;;15.71;78.11;99039.14;109425;1274;22565;-56
2022/07/27 02:54:31;;;;;;;4.30;2.90;;;;;;;15.73;78.25;99040.13;109105;1276;138352;-56
2022/07/27 02:57:01;;;;;;;7.80;3.20;;;;;;;15.74;78.15;99043.17;109486;1274;23201;-56
2022/07/27 02:59:28;;;;;;;5.20;3.20;;;;;;;15.75;78.26;99041.52;109409;1274;23163;-56
2022/07/27 03:01:55;;;;;;;3.50;3.10;;;;;;;15.77;78.32;99049.29;109158;1274;139502;-56
2022/07/27 03:04:22;;;;;;;5.70;3.80;;;;;;;15.78;78.40;99046.36;109419;1274;23179;-56
2022/07/27 03:06:49;;;;;;;8.30;3.20;;;;;;;15.78;78.57;99047.44;109328;1274;140003;-56
2022/07/27 03:09:16;;;;;;;7.50;2.90;;;;;;;15.80;78.62;99043.45;109430;1274;22500;-56
2022/07/27 03:11:42;;;;;;;3.80;3.30;;;;;;;15.82;78.86;99041.29;109268;1274;138211;-55
2022/07/27 03:14:09;;;;;;;5.10;3.10;;;;;;;15.85;78.99;99041.16;109422;1274;22512;-54
2022/07/27 03:16:36;;;;;;;4.80;3.60;;;;;;;15.88;79.19;99039.83;109416;1274;23173;-55
2022/07/27 03:19:04;;;;;;;4.50;3.30;;;;;;;15.91;79.23;99045.71;109358;1274;138627;-54
2022/07/27 03:21:31;;;;;;;4.80;2.90;;;;;;;15.95;79.36;99047.29;109405;1274;22509;-54
2022/07/27 03:23:57;;;;;;;8.50;3.50;;;;;;;15.99;79.56;99046.02;109266;1274;138440;-55
2022/07/27 03:26:24;;;;;;;4.00;3.10;;;;;;;16.04;79.68;99046.23;109369;1274;22453;-56
2022/07/27 03:28:51;;;;;;;4.60;3.10;;;;;;;16.08;79.82;99044.79;109324;1274;22680;-55
2022/07/27 03:31:18;;;;;;;6.80;3.50;;;;;;;16.12;79.87;99045.75;109324;1274;138098;-54
2022/07/27 03:33:44;;;;;;;5.10;3.50;;;;;;;16.16;79.88;99043.85;109446;1274;22419;-55
2022/07/27 03:36:11;;;;;;;7.70;3.80;;;;;;;16.20;80.00;99045.45;109290;1274;139163;-55
2022/07/27 03:38:38;;;;;;;4.80;3.80;;;;;;;16.25;79.89;99045.59;109269;1276;22530;-55
2022/07/27 03:41:05;;;;;;;5.30;3.90;;;;;;;16.30;79.91;99048.82;109408;1274;22502;-55
2022/07/27 03:43:32;;;;;;;6.40;3.80;;;;;;;16.36;79.92;99049.70;109175;1274;138704;-54
2022/07/27 03:45:59;;;;;;;5.80;3.70;;;;;;;16.41;80.06;99046.39;109393;1274;23208;-54
2022/07/27 03:48:26;;;;;;;9.10;3.90;;;;;;;16.48;80.08;99042.49;109296;1274;138646;-54
2022/07/27 03:50:53;;;;;;;12.30;4.20;;;;;;;16.55;80.28;99043.34;109337;1275;22521;-54
2022/07/27 03:53:20;;;;;;;27.70;5.30;;;;;;;16.62;80.36;99039.40;109419;1274;22426;-54
2022/07/27 03:55:47;;;;;;;9.60;4.20;;;;;;;16.72;80.31;99046.69;109148;1275;139477;-54
2022/07/27 03:58:15;;;;;;;10.10;4.80;;;;;;;16.81;80.23;99052.36;109294;1274;22515;-54
2022/07/27 04:00:45;;;;;;;7.40;3.80;;;;;;;16.90;80.28;99048.46;109158;1276;139308;-54
2022/07/27 04:03:12;;;;;;;9.60;4.00;;;;;;;17.01;80.14;99051.63;109429;1274;22455;-55
2022/07/27 04:05:39;;;;;;;8.90;4.20;;;;;;;17.10;79.77;99046.16;109317;1274;138408;-54
2022/07/27 04:08:05;;;;;;;7.80;3.80;;;;;;;17.20;79.43;99046.40;109329;1276;22413;-54
2022/07/27 04:10:32;;;;;;;10.90;4.40;;;;;;;17.30;79.10;99045.10;109497;1274;22615;-55
2022/07/27 04:12:59;;;;;;;5.30;4.10;;;;;;;17.41;78.88;99037.41;109304;1274;138699;-55
2022/07/27 04:15:29;;;;;;;7.00;3.90;;;;;;;17.52;78.55;99041.03;108780;1274;22594;-54
2022/07/27 04:17:55;;;;;;;5.60;4.10;;;;;;;17.63;78.49;99039.10;104920;1274;138341;-54
2022/07/27 04:20:24;;;;;;;6.50;4.50;;;;;;;17.73;78.10;99039.30;105021;1274;24236;-54
2022/07/27 04:22:51;;;;;;;5.60;3.90;;;;;;;17.84;77.69;99040.59;105126;1274;25587;-55
2022/07/27 04:25:17;;;;;;;6.20;4.10;;;;;;;17.94;77.23;99037.32;104936;1274;139539;-54
2022/07/27 04:27:44;;;;;;;9.20;4.20;;;;;;;18.04;76.90;99031.65;105093;1274;24560;-54
2022/07/27 04:30:11;;;;;;;5.50;3.80;;;;;;;18.14;76.30;99034.44;104899;1274;138268;-54
2022/07/27 04:32:38;;;;;;;6.70;4.20;;;;;;;18.25;75.91;99039.27;104976;1277;22646;-54
2022/07/27 04:35:06;;;;;;;7.70;4.00;;;;;;;18.34;75.45;99041.98;105025;1277;22689;-54
2022/07/27 04:37:33;;;;;;;5.20;3.90;;;;;;;18.43;74.98;99041.39;105040;1274;138516;-54
2022/07/27 04:40:00;;;;;;;6.20;4.00;;;;;;;18.52;74.63;99046.08;105114;1274;24292;-54
2022/07/27 04:42:28;;;;;;;5.80;3.50;;;;;;;18.60;74.07;99040.27;104935;1277;139910;-54
2022/07/27 04:44:56;;;;;;;8.30;3.50;;;;;;;18.68;73.82;99043.67;109341;1274;22492;-55
2022/07/27 04:47:22;;;;;;;6.50;3.90;;;;;;;18.78;73.44;99047.12;105420;1274;24014;-55
2022/07/27 04:49:49;;;;;;;6.10;3.60;;;;;;;18.87;73.25;99049.83;104981;1274;138460;-56
2022/07/27 04:52:16;;;;;;;5.90;3.50;;;;;;;18.96;72.85;99053.57;105050;1274;25466;-55
2022/07/27 04:54:44;;;;;;;8.30;3.80;;;;;;;19.05;72.41;99051.45;105043;1274;139155;-56
2022/07/27 04:57:11;;;;;;;4.40;3.20;;;;;;;19.15;72.23;99045.63;105135;1274;25640;-55
2022/07/27 04:59:37;;;;;;;7.10;3.30;;;;;;;19.24;72.01;99041.95;105005;1274;138293;-56
2022/07/27 05:02:04;;;;;;;6.50;2.70;;;;;;;19.33;71.58;99040.31;105148;1274;24278;-56
2022/07/27 05:04:31;;;;;;;4.40;2.80;;;;;;;19.44;71.67;99043.77;104969;1277;23012;-56
2022/07/27 05:06:58;;;;;;;3.60;2.50;;;;;;;19.55;71.15;99046.67;104886;1277;139260;-55
2022/07/27 05:09:25;;;;;;;6.40;3.10;;;;;;;19.70;70.59;99052.13;105051;1277;25538;-55
2022/07/27 05:11:52;;;;;;;3.80;2.90;;;;;;;19.82;70.03;99047.34;104872;1277;138187;-55
2022/07/27 05:14:19;;;;;;;4.50;2.50;;;;;;;19.93;69.43;99049.09;105075;1274;24316;-56
2022/07/27 05:16:48;;;;;;;4.30;2.50;;;;;;;20.07;68.98;99052.19;105125;1274;24286;-56
2022/07/27 05:19:15;;;;;;;5.60;2.70;;;;;;;20.24;68.41;99055.52;104915;1277;138101;-57
2022/07/27 05:21:42;;;;;;;6.80;2.70;;;;;;;20.50;67.91;99055.32;105085;1274;25476;-56
2022/07/27 05:24:08;;;;;;;3.10;2.30;;;;;;;20.83;67.29;99057.64;104901;1277;139039;-56
2022/07/27 05:26:36;;;;;;;7.00;2.40;;;;;;;21.24;66.33;99056.73;105038;1275;22735;-56
2022/07/27 05:29:03;;;;;;;5.20;2.60;;;;;;;21.69;65.36;99053.15;105079;1277;22554;-56
2022/07/27 05:31:30;;;;;;;4.40;2.20;;;;;;;22.17;63.79;99054.18;104990;1274;139233;-56
2022/07/27 05:33:57;;;;;;;5.70;2.60;;;;;;;22.72;62.12;99053.27;104831;1277;22583;-58
2022/07/27 05:36:25;;;;;;;3.30;2.50;;;;;;;23.27;60.50;99051.88;104945;1274;138265;-57
2022/07/27 05:38:51;;;;;;;9.90;2.60;;;;;;;23.80;58.84;99053.63;104907;1277;22548;-57
2022/07/27 05:41:23;;;;;;;3.20;2.50;;;;;;;24.30;57.15;99053.11;105062;1274;22701;-57
2022/07/27 05:43:50;;;;;;;2.90;2.50;;;;;;;24.81;55.71;99055.48;109263;1274;139527;-58
2022/07/27 05:46:17;;;;;;;3.10;2.50;;;;;;;25.28;54.38;99053.83;109340;1274;22464;-58
2022/07/27 05:48:44;;;;;;;3.10;2.40;;;;;;;25.72;52.83;99054.31;109156;1276;138480;-59
2022/07/27 05:51:11;;;;;;;3.00;2.50;;;;;;;26.15;51.81;99057.80;109249;1276;22451;-59
2022/07/27 05:53:37;;;;;;;6.70;2.30;;;;;;;26.61;50.85;99058.48;109215;1274;137611;-58
2022/07/27 05:56:06;;;;;;;4.40;2.30;;;;;;;27.00;49.52;99060.44;109368;1274;22466;-58
2022/07/27 05:58:33;;;;;;;3.40;2.50;;;;;;;27.36;48.41;99060.98;109213;1276;23123;-57
2022/07/27 06:01:00;;;;;;;2.90;2.40;;;;;;;27.64;47.24;99056.30;109016;1276;138573;-58
2022/07/27 06:03:27;;;;;;;5.20;2.50;;;;;;;27.84;47.02;99058.20;109299;1274;22494;-58
2022/07/27 06:07:57;;;;;;;5.60;2.30;;;;;;;28.03;46.38;99057.36;109095;1274;138706;-58
2022/07/27 06:08:40;;;;;;;3.20;2.40;;;;;;;28.19;45.80;99062.47;109165;1276;22511;-58
2022/07/27 06:13:54;;;;;;;2.00;1.90;;;;;;;28.26;44.76;99063.44;109230;1274;137661;-58
2022/07/27 06:16:22;;;;;;;4.40;2.30;;;;;;;28.19;44.56;99063.27;109294;1274;22480;-58
2022/07/27 06:18:49;;;;;;;2.30;2.10;;;;;;;28.05;44.69;99064.89;109144;1277;138347;-58
2022/07/27 06:21:16;;;;;;;4.60;2.30;;;;;;;27.91;44.44;99066.02;109342;1274;22607;-58
2022/07/27 06:23:42;;;;;;;3.90;2.10;;;;;;;27.75;44.58;99067.78;109257;1274;137938;-58
2022/07/27 06:26:09;;;;;;;7.00;2.00;;;;;;;27.58;44.80;99066.38;109262;1274;22437;-58
2022/07/27 06:28:36;;;;;;;3.70;1.90;;;;;;;27.37;45.18;99062.20;109305;1274;23406;-58
2022/07/27 06:31:03;;;;;;;5.40;2.20;;;;;;;27.15;45.55;99064.72;109190;1274;138410;-57
2022/07/27 06:33:32;;;;;;;5.30;2.20;;;;;;;26.98;45.58;99070.73;109135;1276;22449;-57
2022/07/27 06:35:59;;;;;;;3.70;2.30;;;;;;;26.83;45.89;99072.00;109181;1274;138205;-58
2022/07/27 06:38:27;;;;;;;4.00;2.40;;;;;;;26.71;46.39;99070.95;109214;1276;22426;-57
2022/07/27 06:40:54;;;;;;;3.70;2.00;;;;;;;26.57;46.67;99069.30;109250;1276;22493;-58
2022/07/27 06:43:22;;;;;;;2.80;2.30;;;;;;;26.45;46.64;99067.50;109243;1274;138592;-57
2022/07/27 06:45:48;;;;;;;4.40;2.10;;;;;;;26.34;46.31;99075.40;109311;1274;22457;-57
2022/07/27 06:48:16;;;;;;;4.50;2.20;;;;;;;26.23;46.53;99075.81;109107;1275;137744;-58
2022/07/27 06:50:42;;;;;;;5.20;2.10;;;;;;;26.13;47.58;99070.45;109295;1274;22450;-58
2022/07/27 06:53:09;;;;;;;5.10;2.20;;;;;;;26.05;48.04;99070.39;109277;1274;22434;-56
2022/07/27 06:55:36;;;;;;;3.20;2.80;;;;;;;25.94;47.61;99065.34;109200;1274;138023;-58
2022/07/27 06:58:03;;;;;;;3.50;2.30;;;;;;;25.86;47.40;99065.34;109323;1274;22515;-57
2022/07/27 07:00:30;;;;;;;4.20;2.20;;;;;;;25.81;46.93;99067.50;109112;1276;137442;-57
2022/07/27 07:03:02;;;;;;;2.70;2.40;;;;;;;25.76;47.47;99066.83;109375;1274;23356;-57
2022/07/27 07:05:29;;;;;;;6.70;3.30;;;;;;;25.71;47.17;99064.10;109421;1274;22406;-57
2022/07/27 07:07:56;;;;;;;3.70;2.50;;;;;;;25.68;47.60;99067.33;109321;1274;22450;-58
2022/07/27 07:10:23;;;;;;;4.40;3.00;;;;;;;25.65;47.62;99065.85;109259;1274;22643;-57
2022/07/27 07:12:54;;;;;;;4.70;2.40;;;;;;;25.62;47.61;99068.89;109259;1274;138378;-57
2022/07/27 07:15:25;;;;;;;4.60;2.50;;;;;;;25.59;47.63;99068.14;109267;1275;22465;-57
2022/07/27 07:17:53;;;;;;;4.60;2.40;;;;;;;25.55;47.28;99065.91;109241;1274;138968;-57
2022/07/27 07:20:20;;;;;;;4.00;2.70;;;;;;;25.53;47.63;99068.52;109331;1274;23273;-57
2022/07/27 07:22:46;;;;;;;15.20;3.20;;;;;;;25.52;47.50;99073.45;109157;1276;22464;-56
2022/07/27 07:25:13;;;;;;;6.10;3.10;;;;;;;25.52;47.21;99071.20;109193;1274;138593;-57
2022/07/27 07:27:40;;;;;;;4.10;2.50;;;;;;;25.51;47.53;99067.14;109387;1274;22448;-57
2022/07/27 07:30:07;;;;;;;4.40;2.40;;;;;;;25.52;47.41;99062.77;109112;1274;138979;-57
2022/07/27 07:32:34;;;;;;;5.60;2.80;;;;;;;25.53;46.95;99068.44;109242;1277;22531;-57
2022/07/27 07:35:02;;;;;;;5.40;2.80;;;;;;;25.55;46.88;99069.59;109156;1277;22511;-57
2022/07/27 07:37:31;;;;;;;3.00;2.50;;;;;;;25.58;47.68;99069.80;109038;1276;138149;-57
2022/07/27 07:40:00;;;;;;;3.80;3.10;;;;;;;25.61;47.00;99065.41;109192;1275;23196;-57
2022/07/27 07:42:48;;;;;;;3.10;2.30;;;;;;;25.63;46.40;99064.69;109041;1277;138972;-57
2022/07/27 07:45:15;;;;;;;3.70;2.80;;;;;;;25.64;46.71;99065.91;109250;1276;22456;-57
2022/07/27 07:47:42;;;;;;;3.30;2.30;;;;;;;25.66;47.04;99063.63;109116;1276;138319;-57
2022/07/27 07:50:09;;;;;;;4.10;2.30;;;;;;;25.67;46.13;99065.33;109302;1274;22464;-57
2022/07/27 07:52:36;;;;;;;7.70;2.40;;;;;;;25.69;45.54;99065.59;109322;1276;22501;-57
2022/07/27 07:55:03;;;;;;;3.10;2.70;;;;;;;25.70;46.62;99065.76;109206;1275;137625;-57
2022/07/27 07:57:30;;;;;;;4.30;3.10;;;;;;;25.71;46.43;99063.48;105083;1274;23698;-56
2022/07/27 07:59:57;;;;;;;4.40;2.60;;;;;;;25.74;46.00;99062.41;104740;1277;138165;-56
2022/07/27 08:02:23;;;;;;;5.70;2.40;;;;;;;25.77;46.32;99064.05;104678;1277;22574;-56
2022/07/27 08:04:53;;;;;;;8.80;4.40;;;;;;;25.79;46.99;99060.43;109179;1276;22490;-57
2022/07/27 08:07:19;;;;;;;10.00;7.50;;;;;;;25.83;47.16;99069.90;109138;1277;138118;-57
2022/07/27 08:09:46;;;;;;;6.20;4.10;;;;;;;25.89;47.62;99065.95;109363;1274;24294;-57
2022/07/27 08:12:13;;;;;;;3.90;2.80;;;;;;;25.96;46.91;99073.52;109009;1278;138025;-57
2022/07/27 08:14:40;;;;;;;3.70;2.90;;;;;;;26.01;45.82;99067.36;109293;1276;22543;-57
2022/07/27 08:17:07;;;;;;;2.90;2.60;;;;;;;26.01;45.79;99066.59;109208;1276;23133;-57
2022/07/27 08:19:33;;;;;;;2.80;2.60;;;;;;;26.07;46.56;99067.48;109197;1274;137561;-57
2022/07/27 08:22:05;;;;;;;4.10;2.90;;;;;;;26.14;45.92;99064.88;109195;1277;23347;-57
2022/07/27 08:24:32;;;;;;;3.70;2.80;;;;;;;26.19;46.16;99064.49;109132;1276;137786;-57
2022/07/27 08:26:59;;;;;;;5.40;2.60;;;;;;;26.24;45.64;99067.70;109224;1276;22625;-57
2022/07/27 08:29:26;;;;;;;3.70;2.60;;;;;;;26.28;45.54;99068.56;109211;1276;22497;-57
2022/07/27 08:32:03;;;;;;;2.70;2.50;;;;;;;26.30;45.23;99069.17;109260;1274;23218;-59
2022/07/27 08:34:31;;;;;;;4.00;2.30;;;;;;;26.30;45.56;99068.23;109399;1274;22528;-56
2022/07/27 08:36:58;;;;;;;2.60;2.10;;;;;;;26.29;45.82;99067.33;109090;1277;137373;-57
2022/07/27 08:39:25;;;;;;;2.60;2.40;;;;;;;26.28;45.49;99067.98;109321;1275;23647;-57
2022/07/27 08:42:12;;;;;;;2.80;2.60;;;;;;;26.23;44.27;99067.52;109183;1274;137963;-57
2022/07/27 08:44:39;;;;;;;2.90;2.60;;;;;;;26.18;43.86;99063.67;109370;1274;23115;-56
2022/07/27 08:47:09;;;;;;;3.10;2.60;;;;;;;26.12;44.31;99064.14;109244;1275;22508;-56
2022/07/27 08:49:40;;;;;;;7.40;2.00;;;;;;;26.09;44.83;99066.15;109191;1274;137774;-56
2022/07/27 08:52:10;;;;;;;3.20;2.40;;;;;;;26.06;45.04;99063.95;109331;1274;22430;-56
2022/07/27 08:54:38;;;;;;;3.10;2.50;;;;;;;26.04;45.54;99069.19;109214;1274;139221;-57
2022/07/27 08:57:08;;;;;;;3.80;2.10;;;;;;;26.02;45.70;99064.61;109287;1274;22562;-56
2022/07/27 08:59:35;;;;;;;3.30;2.30;;;;;;;26.03;45.82;99067.48;109222;1274;137516;-56
2022/07/27 09:02:09;;;;;;;6.50;2.20;;;;;;;26.02;45.30;99066.28;109308;1274;22446;-56
2022/07/27 09:04:40;;;;;;;3.70;2.30;;;;;;;26.02;45.05;99071.54;109414;1274;22545;-56
2022/07/27 09:07:07;;;;;;;3.40;2.40;;;;;;;26.01;44.50;99065.05;109192;1274;137439;-57
2022/07/27 09:09:44;;;;;;;4.30;2.50;;;;;;;25.99;43.81;99069.95;109316;1274;22563;-56
2022/07/27 09:12:11;;;;;;;9.90;4.00;;;;;;;25.97;44.13;99070.02;109218;1274;139332;-56
2022/07/27 09:14:39;;;;;;;4.00;2.30;;;;;;;25.97;44.85;99068.50;109318;1277;23361;-56
2022/07/27 09:17:23;;;;;;;4.50;2.10;;;;;;;25.99;44.29;99070.13;109213;1275;22431;-57
2022/07/27 09:20:18;;;;;;;2.60;2.40;;;;;;;26.01;43.77;99062.50;109213;1274;22473;-57
2022/07/27 09:22:54;;;;;;;5.00;2.60;;;;;;;26.02;43.61;99065.39;109272;1274;22442;-56
2022/07/27 09:25:22;;;;;;;;;;;;;;;26.04;44.02;99067.27;109173;1274;137781;-56
2022/07/27 09:28:09;;;;;;;2.20;2.00;;;;;;;26.08;45.28;99067.27;109250;1274;22508;-56
2022/07/27 09:30:42;;;;;;;4.20;3.00;;;;;;;26.12;45.57;99064.45;109132;1274;137490;-55
2022/07/27 09:33:09;;;;;;;7.20;2.50;;;;;;;26.15;45.01;99063.15;109339;1274;22443;-57
2022/07/27 09:35:36;;;;;;;5.00;2.20;;;;;;;26.19;44.60;99062.58;108442;1274;138652;-57
2022/07/27 09:38:23;;;;;;;4.20;2.50;;;;;;;26.22;44.52;99061.20;104920;1278;22665;-56
2022/07/27 09:41:00;;;;;;;3.00;2.30;;;;;;;26.25;44.71;99067.31;104986;1274;22575;-55
2022/07/27 09:43:29;;;;;;;3.50;2.50;;;;;;;26.28;45.60;99069.20;104869;1277;137400;-56
2022/07/27 09:49:27;;;;;;;2.60;2.20;;;;;;;26.40;44.06;99066.88;101702;1309;545160;-57
2022/07/27 09:51:55;;;;;;;;;;;;;;;26.44;43.69;99069.16;103977;1287;25363;-55
2022/07/27 09:54:26;;;;;;;5.00;2.40;;;;;;;26.49;44.11;99068.77;107975;1287;125048;-55
2022/07/27 09:57:00;;;;;;;5.90;2.50;;;;;;;26.52;44.15;99071.14;108447;1286;23388;-55
2022/07/27 09:59:27;;;;;;;3.70;2.50;;;;;;;26.56;43.89;99067.60;108239;1286;22465;-55
2022/07/27 10:01:55;;;;;;;5.30;2.30;;;;;;;26.61;44.01;99065.69;107811;1285;214684;-55
2022/07/27 10:04:22;;;;;;;4.00;2.20;;;;;;;26.67;44.56;99068.65;108437;1284;22453;-53
2022/07/27 10:06:49;;;;;;;2.30;2.10;;;;;;;26.70;43.75;99064.70;108342;1284;138137;-56
2022/07/27 10:09:36;;;;;;;4.50;2.30;;;;;;;26.76;43.94;99067.66;109217;1277;22550;-53
2022/07/27 10:12:03;;;;;;;5.40;2.60;;;;;;;26.80;44.01;99069.16;108864;1277;137441;-53
2022/07/27 10:14:31;;;;;;;2.40;2.20;;;;;;;26.83;43.40;99069.20;108948;1279;22483;-54
2022/07/27 10:16:58;;;;;;;2.20;2.00;;;;;;;26.85;43.53;99067.70;109059;1278;22577;-53
2022/07/27 10:19:29;;;;;;;2.80;2.00;;;;;;;26.86;43.18;99071.56;108677;1277;137131;-54
2022/07/27 10:21:56;;;;;;;3.60;2.50;;;;;;;26.88;43.82;99068.48;108607;1279;23084;-54
2022/07/27 10:24:32;;;;;;;6.00;2.70;;;;;;;26.91;42.97;99070.05;108990;1277;137026;-55
2022/07/27 10:27:28;;;;;;;5.40;2.10;;;;;;;26.92;42.34;99073.90;109237;1277;22518;-53
2022/07/27 10:29:55;;;;;;;2.70;2.20;;;;;;;26.91;43.30;99069.48;108957;1277;138130;-54
2022/07/27 10:32:27;;;;;;;2.90;2.60;;;;;;;26.92;43.18;99067.29;109134;1277;22561;-55
2022/07/27 10:34:54;;;;;;;2.60;2.00;;;;;;;26.96;43.45;99065.60;109248;1277;22464;-55
2022/07/27 10:37:27;;;;;;;2.10;2.00;;;;;;;27.01;43.42;99063.82;109047;1277;138120;-54
2022/07/27 10:40:33;;;;;;;2.40;2.20;;;;;;;27.06;43.29;99065.48;109109;1279;22477;-54
2022/07/27 10:42:43;;;;;;;2.80;1.90;;;;;;;27.10;43.27;99063.80;109047;1277;138023;-54
2022/07/27 10:45:14;;;;;;;6.40;2.50;;;;;;;27.14;42.89;99057.84;109048;1279;22452;-55
2022/07/27 10:47:46;;;;;;;7.80;2.00;;;;;;;27.18;43.00;99061.23;108971;1276;139119;-55
2022/07/27 10:50:16;;;;;;;3.90;2.10;;;;;;;27.20;43.23;99059.27;109078;1277;23199;-55
2022/07/27 10:52:43;;;;;;;4.50;2.30;;;;;;;27.20;43.29;99058.07;109055;1276;22486;-55
2022/07/27 10:55:28;;;;;;;2.80;1.90;;;;;;;27.19;42.43;99061.33;108767;1279;138200;-53
2022/07/27 10:58:02;;;;;;;3.50;2.20;;;;;;;27.14;41.96;99063.11;109034;1276;22478;-55
2022/07/27 11:00:47;;;;;;;2.30;2.10;;;;;;;27.11;42.12;99071.55;109049;1276;137856;-55
2022/07/27 11:03:29;;;;;;;3.60;2.50;;;;;;;27.08;43.50;99073.52;109153;1277;22578;-55
2022/07/27 11:05:57;;;;;;;4.30;2.50;;;;;;;27.04;43.68;99078.48;108963;1277;137910;-55
2022/07/27 11:08:39;;;;;;;7.00;2.50;;;;;;;27.00;43.07;99080.02;109109;1278;23850;-53
2022/07/27 11:11:14;;;;;;;4.00;2.50;;;;;;;26.94;42.92;99084.90;109092;1279;22573;-53
2022/07/27 11:13:41;;;;;;;4.30;2.70;;;;;;;26.89;43.11;99085.75;108947;1277;137785;-54
2022/07/27 11:16:09;;;;;;;3.20;2.20;;;;;;;26.85;43.16;99081.36;108863;1279;22688;-54
2022/07/27 11:18:53;;;;;;;4.50;2.10;;;;;;;26.81;43.24;99084.37;108900;1278;137384;-53
2022/07/27 11:21:29;;;;;;;7.10;2.40;;;;;;;26.79;43.48;99085.04;109063;1278;23506;-54
2022/07/27 11:24:02;;;;;;;10.20;2.70;;;;;;;26.76;43.94;99084.28;108967;1278;137280;-54
2022/07/27 11:26:36;;;;;;;6.30;2.90;;;;;;;26.74;43.91;99087.20;109102;1278;22404;-55
2022/07/27 11:29:06;;;;;;;5.20;3.10;;;;;;;26.71;43.89;99084.91;109069;1277;22485;-55
2022/07/27 11:31:33;;;;;;;3.90;2.30;;;;;;;26.70;43.83;99084.02;108910;1278;137054;-54
2022/07/27 11:34:40;;;;;;;7.00;2.30;;;;;;;26.65;43.89;99088.44;109086;1277;22458;-54
2022/07/27 11:37:11;;;;;;;;;;;;;;;26.61;44.22;99087.72;108781;1279;137813;-56